sensor_id;sensor_type;location;lat;lon;timestamp;P1;durP1;ratioP1;P2;durP2;ratioP2
29838;SDS011;18669;53.356;-1.464;2023-06-10T00:00:18;12.07;;;6.80;;
29838;SDS011;18669;53.356;-1.464;2023-06-10T00:03:05;13.65;;;7.55;;
29838;SDS011;18669;53.356;-1.464;2023-06-10T00:05:50;20.10;;;8.02;;
29838;SDS011;18669;53.356;-1.464;2023-06-10T00:08:34;14.85;;;7.40;;
29838;SDS011;18669;53.356;-1.464;2023-06-10T00:11:21;11.90;;;7.88;;
29838;SDS011;18669;53.356;-1.464;2023-06-10T00:14:06;21.92;;;8.13;;
29838;SDS011;18669;53.356;-1.464;2023-06-10T00:16:52;16.73;;;8.18;;
29838;SDS011;18669;53.356;-1.464;2023-06-10T00:19:37;18.00;;;7.90;;
29838;SDS011;18669;53.356;-1.464;2023-06-10T00:22:25;19.40;;;8.48;;
29838;SDS011;18669;53.356;-1.464;2023-06-10T00:25:13;16.20;;;8.10;;
29838;SDS011;18669;53.356;-1.464;2023-06-10T00:27:58;20.05;;;11.80;;
29838;SDS011;18669;53.356;-1.464;2023-06-10T00:30:43;16.73;;;9.48;;
29838;SDS011;18669;53.356;-1.464;2023-06-10T00:33:28;21.65;;;9.48;;
29838;SDS011;18669;53.356;-1.464;2023-06-10T00:36:13;15.55;;;10.05;;
29838;SDS011;18669;53.356;-1.464;2023-06-10T00:38:58;19.27;;;10.77;;
29838;SDS011;18669;53.356;-1.464;2023-06-10T00:41:43;18.55;;;9.82;;
29838;SDS011;18669;53.356;-1.464;2023-06-10T00:44:28;18.83;;;9.90;;
29838;SDS011;18669;53.356;-1.464;2023-06-10T00:47:14;15.93;;;10.45;;
29838;SDS011;18669;53.356;-1.464;2023-06-10T00:49:58;18.50;;;11.65;;
29838;SDS011;18669;53.356;-1.464;2023-06-10T00:52:44;18.38;;;10.38;;
29838;SDS011;18669;53.356;-1.464;2023-06-10T00:55:30;19.60;;;11.25;;
29838;SDS011;18669;53.356;-1.464;2023-06-10T00:58:16;21.73;;;11.98;;
29838;SDS011;18669;53.356;-1.464;2023-06-10T01:01:02;20.58;;;11.18;;
29838;SDS011;18669;53.356;-1.464;2023-06-10T01:03:48;23.13;;;12.93;;
29838;SDS011;18669;53.356;-1.464;2023-06-10T01:09:47;27.77;;;14.25;;
29838;SDS011;18669;53.356;-1.464;2023-06-10T01:15:22;26.45;;;14.95;;
29838;SDS011;18669;53.356;-1.464;2023-06-10T01:18:08;26.27;;;13.90;;
29838;SDS011;18669;53.356;-1.464;2023-06-10T01:20:54;22.88;;;13.18;;
29838;SDS011;18669;53.356;-1.464;2023-06-10T01:23:39;24.20;;;13.95;;
29838;SDS011;18669;53.356;-1.464;2023-06-10T01:26:33;19.60;;;13.45;;
29838;SDS011;18669;53.356;-1.464;2023-06-10T01:29:26;32.58;;;14.95;;
29838;SDS011;18669;53.356;-1.464;2023-06-10T01:32:15;23.95;;;14.73;;
29838;SDS011;18669;53.356;-1.464;2023-06-10T01:35:02;24.90;;;15.60;;
29838;SDS011;18669;53.356;-1.464;2023-06-10T01:37:53;29.15;;;17.20;;
29838;SDS011;18669;53.356;-1.464;2023-06-10T01:40:41;26.55;;;16.40;;
29838;SDS011;18669;53.356;-1.464;2023-06-10T01:43:26;27.27;;;16.23;;
29838;SDS011;18669;53.356;-1.464;2023-06-10T01:46:11;29.00;;;16.92;;
29838;SDS011;18669;53.356;-1.464;2023-06-10T01:48:56;34.53;;;17.95;;
29838;SDS011;18669;53.356;-1.464;2023-06-10T01:51:41;33.83;;;18.40;;
29838;SDS011;18669;53.356;-1.464;2023-06-10T01:54:26;32.40;;;18.05;;
29838;SDS011;18669;53.356;-1.464;2023-06-10T01:57:11;35.72;;;17.98;;
29838;SDS011;18669;53.356;-1.464;2023-06-10T01:59:55;35.60;;;18.92;;
29838;SDS011;18669;53.356;-1.464;2023-06-10T02:02:40;31.95;;;16.50;;
29838;SDS011;18669;53.356;-1.464;2023-06-10T02:05:25;31.05;;;17.58;;
29838;SDS011;18669;53.356;-1.464;2023-06-10T02:08:10;28.70;;;17.15;;
29838;SDS011;18669;53.356;-1.464;2023-06-10T02:10:55;30.92;;;17.58;;
29838;SDS011;18669;53.356;-1.464;2023-06-10T02:13:40;28.67;;;17.23;;
29838;SDS011;18669;53.356;-1.464;2023-06-10T02:16:25;31.13;;;17.63;;
29838;SDS011;18669;53.356;-1.464;2023-06-10T02:19:10;30.00;;;17.58;;
29838;SDS011;18669;53.356;-1.464;2023-06-10T02:21:56;28.65;;;16.92;;
29838;SDS011;18669;53.356;-1.464;2023-06-10T02:24:41;33.88;;;17.33;;
29838;SDS011;18669;53.356;-1.464;2023-06-10T02:27:26;29.90;;;15.77;;
29838;SDS011;18669;53.356;-1.464;2023-06-10T02:30:11;30.30;;;16.75;;
29838;SDS011;18669;53.356;-1.464;2023-06-10T02:32:57;29.17;;;15.00;;
29838;SDS011;18669;53.356;-1.464;2023-06-10T02:35:43;32.08;;;16.30;;
29838;SDS011;18669;53.356;-1.464;2023-06-10T02:38:28;30.27;;;16.13;;
29838;SDS011;18669;53.356;-1.464;2023-06-10T02:41:13;29.30;;;15.05;;
29838;SDS011;18669;53.356;-1.464;2023-06-10T02:43:57;27.63;;;15.35;;
29838;SDS011;18669;53.356;-1.464;2023-06-10T02:46:42;29.42;;;15.50;;
29838;SDS011;18669;53.356;-1.464;2023-06-10T02:49:27;31.52;;;15.55;;
29838;SDS011;18669;53.356;-1.464;2023-06-10T02:52:12;30.85;;;16.25;;
29838;SDS011;18669;53.356;-1.464;2023-06-10T02:54:57;29.45;;;14.98;;
29838;SDS011;18669;53.356;-1.464;2023-06-10T02:57:42;33.13;;;15.07;;
29838;SDS011;18669;53.356;-1.464;2023-06-10T03:00:27;31.25;;;15.65;;
29838;SDS011;18669;53.356;-1.464;2023-06-10T03:03:12;24.73;;;14.55;;
29838;SDS011;18669;53.356;-1.464;2023-06-10T03:05:57;33.17;;;14.65;;
29838;SDS011;18669;53.356;-1.464;2023-06-10T03:08:43;26.35;;;13.18;;
29838;SDS011;18669;53.356;-1.464;2023-06-10T03:11:29;27.98;;;13.60;;
29838;SDS011;18669;53.356;-1.464;2023-06-10T03:14:14;26.20;;;14.60;;
29838;SDS011;18669;53.356;-1.464;2023-06-10T03:16:59;28.55;;;14.30;;
29838;SDS011;18669;53.356;-1.464;2023-06-10T03:19:44;37.10;;;14.77;;
29838;SDS011;18669;53.356;-1.464;2023-06-10T03:22:29;30.48;;;15.68;;
29838;SDS011;18669;53.356;-1.464;2023-06-10T03:25:14;30.70;;;15.55;;
29838;SDS011;18669;53.356;-1.464;2023-06-10T03:27:59;28.17;;;15.23;;
29838;SDS011;18669;53.356;-1.464;2023-06-10T03:30:44;37.72;;;16.98;;
29838;SDS011;18669;53.356;-1.464;2023-06-10T03:33:29;32.15;;;14.73;;
29838;SDS011;18669;53.356;-1.464;2023-06-10T03:36:14;30.85;;;15.23;;
29838;SDS011;18669;53.356;-1.464;2023-06-10T03:38:59;35.25;;;15.95;;
29838;SDS011;18669;53.356;-1.464;2023-06-10T03:41:44;33.35;;;15.57;;
29838;SDS011;18669;53.356;-1.464;2023-06-10T03:44:29;43.22;;;15.07;;
29838;SDS011;18669;53.356;-1.464;2023-06-10T03:47:14;35.50;;;14.32;;
29838;SDS011;18669;53.356;-1.464;2023-06-10T03:49:59;31.52;;;15.68;;
29838;SDS011;18669;53.356;-1.464;2023-06-10T03:52:43;31.02;;;15.85;;
29838;SDS011;18669;53.356;-1.464;2023-06-10T03:55:29;27.05;;;14.43;;
29838;SDS011;18669;53.356;-1.464;2023-06-10T03:58:15;31.27;;;14.30;;
29838;SDS011;18669;53.356;-1.464;2023-06-10T04:01:02;27.70;;;14.25;;
29838;SDS011;18669;53.356;-1.464;2023-06-10T04:03:47;31.38;;;16.60;;
29838;SDS011;18669;53.356;-1.464;2023-06-10T04:06:33;40.95;;;18.48;;
29838;SDS011;18669;53.356;-1.464;2023-06-10T04:09:18;35.05;;;20.77;;
29838;SDS011;18669;53.356;-1.464;2023-06-10T04:12:03;33.53;;;18.02;;
29838;SDS011;18669;53.356;-1.464;2023-06-10T04:17:35;28.15;;;15.23;;
29838;SDS011;18669;53.356;-1.464;2023-06-10T04:20:20;32.33;;;14.75;;
29838;SDS011;18669;53.356;-1.464;2023-06-10T04:23:05;35.85;;;14.13;;
29838;SDS011;18669;53.356;-1.464;2023-06-10T04:25:50;31.60;;;14.27;;
29838;SDS011;18669;53.356;-1.464;2023-06-10T04:28:35;28.85;;;14.48;;
29838;SDS011;18669;53.356;-1.464;2023-06-10T04:31:20;38.72;;;14.88;;
29838;SDS011;18669;53.356;-1.464;2023-06-10T04:34:06;29.95;;;13.55;;
29838;SDS011;18669;53.356;-1.464;2023-06-10T04:36:52;27.17;;;12.52;;
29838;SDS011;18669;53.356;-1.464;2023-06-10T04:39:36;26.30;;;12.55;;
29838;SDS011;18669;53.356;-1.464;2023-06-10T04:42:21;35.47;;;13.57;;
29838;SDS011;18669;53.356;-1.464;2023-06-10T04:45:07;26.23;;;13.90;;
29838;SDS011;18669;53.356;-1.464;2023-06-10T04:47:52;24.42;;;13.80;;
29838;SDS011;18669;53.356;-1.464;2023-06-10T04:50:39;27.20;;;13.05;;
29838;SDS011;18669;53.356;-1.464;2023-06-10T04:53:24;27.98;;;13.73;;
29838;SDS011;18669;53.356;-1.464;2023-06-10T04:56:09;29.63;;;12.68;;
29838;SDS011;18669;53.356;-1.464;2023-06-10T04:58:54;21.35;;;12.70;;
29838;SDS011;18669;53.356;-1.464;2023-06-10T05:01:39;32.05;;;13.43;;
29838;SDS011;18669;53.356;-1.464;2023-06-10T05:04:24;34.88;;;13.38;;
29838;SDS011;18669;53.356;-1.464;2023-06-10T05:07:09;27.52;;;12.13;;
29838;SDS011;18669;53.356;-1.464;2023-06-10T05:09:54;23.17;;;12.30;;
29838;SDS011;18669;53.356;-1.464;2023-06-10T05:12:39;29.67;;;11.50;;
29838;SDS011;18669;53.356;-1.464;2023-06-10T05:15:25;25.63;;;11.50;;
29838;SDS011;18669;53.356;-1.464;2023-06-10T05:18:10;26.23;;;11.95;;
29838;SDS011;18669;53.356;-1.464;2023-06-10T05:20:56;22.67;;;11.57;;
29838;SDS011;18669;53.356;-1.464;2023-06-10T05:23:41;26.63;;;10.27;;
29838;SDS011;18669;53.356;-1.464;2023-06-10T05:26:27;18.48;;;10.10;;
29838;SDS011;18669;53.356;-1.464;2023-06-10T05:29:13;21.77;;;10.13;;
29838;SDS011;18669;53.356;-1.464;2023-06-10T05:31:59;19.58;;;9.25;;
29838;SDS011;18669;53.356;-1.464;2023-06-10T05:34:47;17.42;;;9.30;;
29838;SDS011;18669;53.356;-1.464;2023-06-10T05:37:33;18.20;;;9.32;;
29838;SDS011;18669;53.356;-1.464;2023-06-10T05:40:19;21.92;;;9.68;;
29838;SDS011;18669;53.356;-1.464;2023-06-10T05:43:04;21.00;;;9.32;;
29838;SDS011;18669;53.356;-1.464;2023-06-10T05:45:49;14.95;;;9.27;;
29838;SDS011;18669;53.356;-1.464;2023-06-10T05:48:34;21.20;;;8.95;;
29838;SDS011;18669;53.356;-1.464;2023-06-10T05:51:19;18.35;;;9.07;;
29838;SDS011;18669;53.356;-1.464;2023-06-10T05:54:04;18.65;;;9.45;;
29838;SDS011;18669;53.356;-1.464;2023-06-10T05:56:49;19.48;;;9.18;;
29838;SDS011;18669;53.356;-1.464;2023-06-10T05:59:34;16.38;;;8.93;;
29838;SDS011;18669;53.356;-1.464;2023-06-10T06:02:19;18.45;;;8.85;;
29838;SDS011;18669;53.356;-1.464;2023-06-10T06:05:04;17.40;;;9.10;;
29838;SDS011;18669;53.356;-1.464;2023-06-10T06:07:49;16.98;;;8.75;;
29838;SDS011;18669;53.356;-1.464;2023-06-10T06:10:34;19.45;;;8.88;;
29838;SDS011;18669;53.356;-1.464;2023-06-10T06:13:19;15.18;;;7.88;;
29838;SDS011;18669;53.356;-1.464;2023-06-10T06:16:03;15.52;;;8.35;;
29838;SDS011;18669;53.356;-1.464;2023-06-10T06:18:48;12.18;;;6.93;;
29838;SDS011;18669;53.356;-1.464;2023-06-10T06:21:33;16.13;;;8.20;;
29838;SDS011;18669;53.356;-1.464;2023-06-10T06:24:18;22.25;;;8.43;;
29838;SDS011;18669;53.356;-1.464;2023-06-10T06:27:03;16.17;;;8.60;;
29838;SDS011;18669;53.356;-1.464;2023-06-10T06:29:48;17.45;;;7.63;;
29838;SDS011;18669;53.356;-1.464;2023-06-10T06:32:33;15.05;;;8.05;;
29838;SDS011;18669;53.356;-1.464;2023-06-10T06:35:18;17.95;;;8.30;;
29838;SDS011;18669;53.356;-1.464;2023-06-10T06:38:03;17.45;;;8.30;;
29838;SDS011;18669;53.356;-1.464;2023-06-10T06:40:48;17.85;;;7.65;;
29838;SDS011;18669;53.356;-1.464;2023-06-10T06:43:33;15.48;;;8.50;;
29838;SDS011;18669;53.356;-1.464;2023-06-10T06:46:18;24.05;;;8.57;;
29838;SDS011;18669;53.356;-1.464;2023-06-10T06:49:03;15.10;;;7.22;;
29838;SDS011;18669;53.356;-1.464;2023-06-10T06:51:47;12.93;;;7.75;;
29838;SDS011;18669;53.356;-1.464;2023-06-10T06:54:32;19.40;;;9.18;;
29838;SDS011;18669;53.356;-1.464;2023-06-10T06:57:17;16.25;;;8.65;;
29838;SDS011;18669;53.356;-1.464;2023-06-10T07:00:02;17.70;;;8.02;;
29838;SDS011;18669;53.356;-1.464;2023-06-10T07:02:48;17.15;;;7.70;;
29838;SDS011;18669;53.356;-1.464;2023-06-10T07:05:33;18.10;;;8.25;;
29838;SDS011;18669;53.356;-1.464;2023-06-10T07:08:18;17.58;;;7.53;;
29838;SDS011;18669;53.356;-1.464;2023-06-10T07:11:03;13.13;;;7.55;;
29838;SDS011;18669;53.356;-1.464;2023-06-10T07:13:48;12.95;;;7.22;;
29838;SDS011;18669;53.356;-1.464;2023-06-10T07:16:33;18.40;;;8.05;;
29838;SDS011;18669;53.356;-1.464;2023-06-10T07:19:18;20.33;;;8.45;;
29838;SDS011;18669;53.356;-1.464;2023-06-10T07:22:03;15.30;;;7.38;;
29838;SDS011;18669;53.356;-1.464;2023-06-10T07:24:48;18.88;;;7.90;;
29838;SDS011;18669;53.356;-1.464;2023-06-10T07:27:33;20.58;;;7.25;;
29838;SDS011;18669;53.356;-1.464;2023-06-10T07:30:17;14.50;;;7.18;;
29838;SDS011;18669;53.356;-1.464;2023-06-10T07:33:02;15.85;;;7.22;;
29838;SDS011;18669;53.356;-1.464;2023-06-10T07:35:47;20.02;;;7.90;;
29838;SDS011;18669;53.356;-1.464;2023-06-10T07:38:32;20.83;;;7.65;;
29838;SDS011;18669;53.356;-1.464;2023-06-10T07:41:18;17.65;;;7.75;;
29838;SDS011;18669;53.356;-1.464;2023-06-10T07:44:03;15.57;;;7.28;;
29838;SDS011;18669;53.356;-1.464;2023-06-10T07:46:48;13.88;;;6.68;;
29838;SDS011;18669;53.356;-1.464;2023-06-10T07:49:33;17.95;;;7.30;;
29838;SDS011;18669;53.356;-1.464;2023-06-10T07:52:18;13.82;;;5.90;;
29838;SDS011;18669;53.356;-1.464;2023-06-10T07:55:03;17.27;;;6.75;;
29838;SDS011;18669;53.356;-1.464;2023-06-10T07:57:48;16.90;;;6.68;;
29838;SDS011;18669;53.356;-1.464;2023-06-10T08:00:33;21.20;;;6.03;;
29838;SDS011;18669;53.356;-1.464;2023-06-10T08:03:18;11.57;;;5.60;;
29838;SDS011;18669;53.356;-1.464;2023-06-10T08:06:03;13.30;;;5.70;;
29838;SDS011;18669;53.356;-1.464;2023-06-10T08:08:48;13.15;;;5.63;;
29838;SDS011;18669;53.356;-1.464;2023-06-10T08:11:33;19.70;;;6.65;;
29838;SDS011;18669;53.356;-1.464;2023-06-10T08:14:18;23.63;;;8.48;;
29838;SDS011;18669;53.356;-1.464;2023-06-10T08:17:03;16.52;;;8.18;;
29838;SDS011;18669;53.356;-1.464;2023-06-10T08:19:50;19.33;;;8.05;;
29838;SDS011;18669;53.356;-1.464;2023-06-10T08:22:35;14.75;;;5.80;;
29838;SDS011;18669;53.356;-1.464;2023-06-10T08:25:20;15.27;;;6.45;;
29838;SDS011;18669;53.356;-1.464;2023-06-10T08:30:51;16.55;;;5.80;;
29838;SDS011;18669;53.356;-1.464;2023-06-10T08:33:36;15.30;;;4.72;;
29838;SDS011;18669;53.356;-1.464;2023-06-10T08:36:20;9.20;;;4.68;;
29838;SDS011;18669;53.356;-1.464;2023-06-10T08:39:05;10.30;;;4.82;;
29838;SDS011;18669;53.356;-1.464;2023-06-10T08:45:01;11.00;;;4.40;;
29838;SDS011;18669;53.356;-1.464;2023-06-10T08:47:48;11.48;;;4.65;;
29838;SDS011;18669;53.356;-1.464;2023-06-10T08:50:36;13.00;;;4.90;;
29838;SDS011;18669;53.356;-1.464;2023-06-10T08:53:21;14.63;;;4.85;;
29838;SDS011;18669;53.356;-1.464;2023-06-10T08:58:53;13.95;;;4.85;;
29838;SDS011;18669;53.356;-1.464;2023-06-10T09:01:41;10.70;;;4.13;;
29838;SDS011;18669;53.356;-1.464;2023-06-10T09:04:25;15.68;;;4.93;;
29838;SDS011;18669;53.356;-1.464;2023-06-10T09:07:11;11.77;;;5.32;;
29838;SDS011;18669;53.356;-1.464;2023-06-10T09:09:58;12.40;;;5.13;;
29838;SDS011;18669;53.356;-1.464;2023-06-10T09:12:45;20.95;;;5.85;;
29838;SDS011;18669;53.356;-1.464;2023-06-10T09:15:30;12.20;;;4.28;;
29838;SDS011;18669;53.356;-1.464;2023-06-10T09:18:14;10.38;;;4.18;;
29838;SDS011;18669;53.356;-1.464;2023-06-10T09:20:59;10.30;;;4.55;;
29838;SDS011;18669;53.356;-1.464;2023-06-10T09:23:44;10.10;;;3.67;;
29838;SDS011;18669;53.356;-1.464;2023-06-10T09:26:30;16.13;;;5.00;;
29838;SDS011;18669;53.356;-1.464;2023-06-10T09:29:14;14.95;;;5.55;;
29838;SDS011;18669;53.356;-1.464;2023-06-10T09:31:59;12.95;;;4.53;;
29838;SDS011;18669;53.356;-1.464;2023-06-10T09:34:45;11.32;;;5.68;;
29838;SDS011;18669;53.356;-1.464;2023-06-10T09:37:31;23.25;;;7.05;;
29838;SDS011;18669;53.356;-1.464;2023-06-10T09:40:16;14.83;;;4.47;;
29838;SDS011;18669;53.356;-1.464;2023-06-10T09:43:01;13.83;;;4.40;;
29838;SDS011;18669;53.356;-1.464;2023-06-10T09:45:49;13.85;;;4.63;;
29838;SDS011;18669;53.356;-1.464;2023-06-10T09:48:41;17.02;;;5.25;;
29838;SDS011;18669;53.356;-1.464;2023-06-10T09:51:27;15.30;;;4.82;;
29838;SDS011;18669;53.356;-1.464;2023-06-10T09:54:12;17.48;;;6.28;;
29838;SDS011;18669;53.356;-1.464;2023-06-10T09:56:57;16.35;;;6.75;;
29838;SDS011;18669;53.356;-1.464;2023-06-10T09:59:44;14.68;;;5.93;;
29838;SDS011;18669;53.356;-1.464;2023-06-10T10:05:18;14.75;;;6.22;;
29838;SDS011;18669;53.356;-1.464;2023-06-10T10:08:04;13.43;;;5.68;;
29838;SDS011;18669;53.356;-1.464;2023-06-10T10:10:49;16.35;;;5.50;;
29838;SDS011;18669;53.356;-1.464;2023-06-10T10:13:34;15.38;;;5.25;;
29838;SDS011;18669;53.356;-1.464;2023-06-10T10:16:36;11.98;;;4.80;;
29838;SDS011;18669;53.356;-1.464;2023-06-10T10:19:28;11.45;;;4.30;;
29838;SDS011;18669;53.356;-1.464;2023-06-10T10:22:36;13.57;;;5.47;;
29838;SDS011;18669;53.356;-1.464;2023-06-10T10:25:24;20.73;;;6.00;;
29838;SDS011;18669;53.356;-1.464;2023-06-10T10:28:12;14.55;;;5.22;;
29838;SDS011;18669;53.356;-1.464;2023-06-10T10:31:06;22.45;;;6.43;;
29838;SDS011;18669;53.356;-1.464;2023-06-10T10:33:55;12.27;;;5.40;;
29838;SDS011;18669;53.356;-1.464;2023-06-10T10:36:43;14.60;;;5.53;;
29838;SDS011;18669;53.356;-1.464;2023-06-10T10:39:29;10.90;;;4.50;;
29838;SDS011;18669;53.356;-1.464;2023-06-10T10:42:15;12.60;;;5.10;;
29838;SDS011;18669;53.356;-1.464;2023-06-10T10:45:02;15.50;;;6.15;;
29838;SDS011;18669;53.356;-1.464;2023-06-10T10:47:49;14.50;;;5.30;;
29838;SDS011;18669;53.356;-1.464;2023-06-10T10:50:36;12.95;;;5.68;;
29838;SDS011;18669;53.356;-1.464;2023-06-10T10:56:07;9.75;;;5.40;;
29838;SDS011;18669;53.356;-1.464;2023-06-10T10:59:03;11.95;;;5.40;;
29838;SDS011;18669;53.356;-1.464;2023-06-10T11:01:49;15.27;;;5.68;;
29838;SDS011;18669;53.356;-1.464;2023-06-10T11:04:34;62.33;;;30.08;;
29838;SDS011;18669;53.356;-1.464;2023-06-10T11:07:21;42.08;;;17.15;;
29838;SDS011;18669;53.356;-1.464;2023-06-10T11:10:09;24.88;;;10.25;;
29838;SDS011;18669;53.356;-1.464;2023-06-10T11:12:56;15.38;;;5.20;;
29838;SDS011;18669;53.356;-1.464;2023-06-10T11:15:44;11.77;;;5.25;;
29838;SDS011;18669;53.356;-1.464;2023-06-10T11:18:40;16.02;;;8.43;;
29838;SDS011;18669;53.356;-1.464;2023-06-10T11:21:25;17.92;;;5.18;;
29838;SDS011;18669;53.356;-1.464;2023-06-10T11:24:13;25.27;;;9.93;;
29838;SDS011;18669;53.356;-1.464;2023-06-10T11:27:20;12.70;;;5.90;;
29838;SDS011;18669;53.356;-1.464;2023-06-10T11:32:52;14.77;;;6.10;;
29838;SDS011;18669;53.356;-1.464;2023-06-10T11:38:21;10.43;;;5.30;;
29838;SDS011;18669;53.356;-1.464;2023-06-10T11:41:07;19.10;;;5.80;;
29838;SDS011;18669;53.356;-1.464;2023-06-10T11:43:52;15.63;;;4.88;;
29838;SDS011;18669;53.356;-1.464;2023-06-10T11:46:40;13.75;;;5.18;;
29838;SDS011;18669;53.356;-1.464;2023-06-10T11:49:26;13.00;;;5.03;;
29838;SDS011;18669;53.356;-1.464;2023-06-10T11:54:56;13.80;;;4.82;;
29838;SDS011;18669;53.356;-1.464;2023-06-10T11:57:41;14.75;;;5.03;;
29838;SDS011;18669;53.356;-1.464;2023-06-10T12:00:26;13.65;;;4.45;;
29838;SDS011;18669;53.356;-1.464;2023-06-10T12:03:11;13.55;;;5.00;;
29838;SDS011;18669;53.356;-1.464;2023-06-10T12:05:59;20.25;;;5.97;;
29838;SDS011;18669;53.356;-1.464;2023-06-10T12:08:45;11.63;;;5.20;;
29838;SDS011;18669;53.356;-1.464;2023-06-10T12:11:30;12.85;;;4.78;;
29838;SDS011;18669;53.356;-1.464;2023-06-10T12:14:16;20.73;;;5.53;;
29838;SDS011;18669;53.356;-1.464;2023-06-10T12:17:01;19.90;;;5.50;;
29838;SDS011;18669;53.356;-1.464;2023-06-10T12:19:47;17.50;;;5.82;;
29838;SDS011;18669;53.356;-1.464;2023-06-10T12:25:26;18.15;;;5.57;;
29838;SDS011;18669;53.356;-1.464;2023-06-10T12:28:12;11.63;;;5.25;;
29838;SDS011;18669;53.356;-1.464;2023-06-10T12:31:07;12.15;;;4.47;;
29838;SDS011;18669;53.356;-1.464;2023-06-10T12:34:07;16.10;;;4.75;;
29838;SDS011;18669;53.356;-1.464;2023-06-10T12:36:52;15.45;;;4.78;;
29838;SDS011;18669;53.356;-1.464;2023-06-10T12:39:37;17.35;;;5.03;;
29838;SDS011;18669;53.356;-1.464;2023-06-10T12:42:22;20.75;;;4.90;;
29838;SDS011;18669;53.356;-1.464;2023-06-10T12:45:07;12.13;;;4.90;;
29838;SDS011;18669;53.356;-1.464;2023-06-10T12:48:03;12.20;;;4.38;;
29838;SDS011;18669;53.356;-1.464;2023-06-10T12:50:57;10.30;;;4.40;;
29838;SDS011;18669;53.356;-1.464;2023-06-10T12:53:42;13.60;;;4.68;;
29838;SDS011;18669;53.356;-1.464;2023-06-10T12:56:27;15.07;;;5.20;;
29838;SDS011;18669;53.356;-1.464;2023-06-10T12:59:12;10.95;;;5.32;;
29838;SDS011;18669;53.356;-1.464;2023-06-10T13:01:57;15.23;;;5.47;;
29838;SDS011;18669;53.356;-1.464;2023-06-10T13:04:45;12.95;;;5.32;;
29838;SDS011;18669;53.356;-1.464;2023-06-10T13:07:30;14.82;;;5.82;;
29838;SDS011;18669;53.356;-1.464;2023-06-10T13:10:15;17.27;;;4.80;;
29838;SDS011;18669;53.356;-1.464;2023-06-10T13:13:02;18.23;;;4.93;;
29838;SDS011;18669;53.356;-1.464;2023-06-10T13:15:49;15.40;;;5.22;;
29838;SDS011;18669;53.356;-1.464;2023-06-10T13:18:34;15.63;;;5.30;;
29838;SDS011;18669;53.356;-1.464;2023-06-10T13:21:21;11.25;;;5.00;;
29838;SDS011;18669;53.356;-1.464;2023-06-10T13:24:06;10.80;;;4.60;;
29838;SDS011;18669;53.356;-1.464;2023-06-10T13:26:51;11.13;;;4.68;;
29838;SDS011;18669;53.356;-1.464;2023-06-10T13:29:36;11.43;;;5.00;;
29838;SDS011;18669;53.356;-1.464;2023-06-10T13:32:21;9.23;;;4.10;;
29838;SDS011;18669;53.356;-1.464;2023-06-10T13:35:06;10.63;;;4.40;;
29838;SDS011;18669;53.356;-1.464;2023-06-10T13:37:52;16.10;;;5.07;;
29838;SDS011;18669;53.356;-1.464;2023-06-10T13:40:36;12.07;;;4.95;;
29838;SDS011;18669;53.356;-1.464;2023-06-10T13:43:21;8.90;;;4.28;;
29838;SDS011;18669;53.356;-1.464;2023-06-10T13:46:06;11.90;;;4.55;;
29838;SDS011;18669;53.356;-1.464;2023-06-10T13:48:51;11.55;;;4.53;;
29838;SDS011;18669;53.356;-1.464;2023-06-10T13:51:36;10.02;;;4.13;;
29838;SDS011;18669;53.356;-1.464;2023-06-10T13:54:21;10.75;;;4.53;;
29838;SDS011;18669;53.356;-1.464;2023-06-10T13:57:05;6.43;;;3.70;;
29838;SDS011;18669;53.356;-1.464;2023-06-10T13:59:50;9.93;;;4.07;;
29838;SDS011;18669;53.356;-1.464;2023-06-10T14:02:36;10.05;;;4.22;;
29838;SDS011;18669;53.356;-1.464;2023-06-10T14:05:21;9.68;;;3.97;;
29838;SDS011;18669;53.356;-1.464;2023-06-10T14:08:06;10.05;;;4.40;;
29838;SDS011;18669;53.356;-1.464;2023-06-10T14:10:51;9.23;;;3.83;;
29838;SDS011;18669;53.356;-1.464;2023-06-10T14:13:36;9.85;;;4.50;;
29838;SDS011;18669;53.356;-1.464;2023-06-10T14:16:23;13.07;;;4.63;;
29838;SDS011;18669;53.356;-1.464;2023-06-10T14:19:08;10.20;;;3.90;;
29838;SDS011;18669;53.356;-1.464;2023-06-10T14:21:53;9.77;;;3.90;;
29838;SDS011;18669;53.356;-1.464;2023-06-10T14:24:39;10.02;;;4.05;;
29838;SDS011;18669;53.356;-1.464;2023-06-10T14:27:24;12.13;;;4.07;;
29838;SDS011;18669;53.356;-1.464;2023-06-10T14:30:11;5.60;;;3.88;;
29838;SDS011;18669;53.356;-1.464;2023-06-10T14:32:59;7.20;;;3.95;;
29838;SDS011;18669;53.356;-1.464;2023-06-10T14:35:44;10.32;;;4.25;;
29838;SDS011;18669;53.356;-1.464;2023-06-10T14:38:29;5.18;;;3.80;;
29838;SDS011;18669;53.356;-1.464;2023-06-10T14:41:14;5.72;;;4.10;;
29838;SDS011;18669;53.356;-1.464;2023-06-10T14:43:59;6.68;;;3.95;;
29838;SDS011;18669;53.356;-1.464;2023-06-10T14:46:44;9.48;;;4.10;;
29838;SDS011;18669;53.356;-1.464;2023-06-10T14:49:29;8.82;;;4.05;;
29838;SDS011;18669;53.356;-1.464;2023-06-10T14:52:13;8.63;;;3.92;;
29838;SDS011;18669;53.356;-1.464;2023-06-10T14:54:58;11.18;;;4.32;;
29838;SDS011;18669;53.356;-1.464;2023-06-10T14:57:43;13.98;;;4.82;;
29838;SDS011;18669;53.356;-1.464;2023-06-10T15:00:28;10.80;;;4.47;;
29838;SDS011;18669;53.356;-1.464;2023-06-10T15:05:57;8.82;;;3.97;;
29838;SDS011;18669;53.356;-1.464;2023-06-10T15:08:42;5.70;;;3.88;;
29838;SDS011;18669;53.356;-1.464;2023-06-10T15:11:27;6.93;;;4.47;;
29838;SDS011;18669;53.356;-1.464;2023-06-10T15:14:12;12.73;;;4.68;;
29838;SDS011;18669;53.356;-1.464;2023-06-10T15:16:57;5.82;;;4.03;;
29838;SDS011;18669;53.356;-1.464;2023-06-10T15:19:43;6.75;;;4.43;;
29838;SDS011;18669;53.356;-1.464;2023-06-10T15:25:12;13.27;;;4.68;;
29838;SDS011;18669;53.356;-1.464;2023-06-10T15:27:57;6.68;;;4.07;;
29838;SDS011;18669;53.356;-1.464;2023-06-10T15:30:42;11.60;;;5.05;;
29838;SDS011;18669;53.356;-1.464;2023-06-10T15:33:27;7.30;;;4.47;;
29838;SDS011;18669;53.356;-1.464;2023-06-10T15:36:12;8.20;;;4.32;;
29838;SDS011;18669;53.356;-1.464;2023-06-10T15:39:00;7.00;;;4.45;;
29838;SDS011;18669;53.356;-1.464;2023-06-10T15:41:46;17.00;;;4.85;;
29838;SDS011;18669;53.356;-1.464;2023-06-10T15:44:31;7.25;;;4.75;;
29838;SDS011;18669;53.356;-1.464;2023-06-10T15:47:16;11.45;;;5.18;;
29838;SDS011;18669;53.356;-1.464;2023-06-10T15:50:01;13.45;;;5.70;;
29838;SDS011;18669;53.356;-1.464;2023-06-10T15:52:46;12.23;;;5.82;;
29838;SDS011;18669;53.356;-1.464;2023-06-10T15:55:31;9.95;;;5.63;;
29838;SDS011;18669;53.356;-1.464;2023-06-10T15:58:16;6.33;;;5.20;;
29838;SDS011;18669;53.356;-1.464;2023-06-10T16:01:00;13.43;;;5.60;;
29838;SDS011;18669;53.356;-1.464;2023-06-10T16:03:45;7.20;;;5.50;;
29838;SDS011;18669;53.356;-1.464;2023-06-10T16:06:30;9.02;;;5.85;;
29838;SDS011;18669;53.356;-1.464;2023-06-10T16:09:15;13.20;;;5.80;;
29838;SDS011;18669;53.356;-1.464;2023-06-10T16:12:00;9.07;;;5.72;;
29838;SDS011;18669;53.356;-1.464;2023-06-10T16:14:46;7.22;;;5.13;;
29838;SDS011;18669;53.356;-1.464;2023-06-10T16:17:31;13.70;;;5.80;;
29838;SDS011;18669;53.356;-1.464;2023-06-10T16:20:16;12.65;;;5.65;;
29838;SDS011;18669;53.356;-1.464;2023-06-10T16:23:02;10.57;;;5.60;;
29838;SDS011;18669;53.356;-1.464;2023-06-10T16:25:47;14.23;;;5.82;;
29838;SDS011;18669;53.356;-1.464;2023-06-10T16:28:32;10.73;;;5.53;;
29838;SDS011;18669;53.356;-1.464;2023-06-10T16:31:17;12.50;;;5.97;;
29838;SDS011;18669;53.356;-1.464;2023-06-10T16:34:02;25.30;;;6.47;;
29838;SDS011;18669;53.356;-1.464;2023-06-10T16:36:47;11.17;;;5.70;;
29838;SDS011;18669;53.356;-1.464;2023-06-10T16:39:32;13.77;;;6.30;;
29838;SDS011;18669;53.356;-1.464;2023-06-10T16:42:17;15.20;;;8.02;;
29838;SDS011;18669;53.356;-1.464;2023-06-10T16:45:02;11.23;;;6.22;;